DATI METEO

IERI
Time Temp. P.to rug.. Umid. Direzion Velocità d Wind gust Press. 1h Prec. 24h Prec.
00:08 8.6 7.5 93 279 5.3 8.1 1001.2 1.6160 0.4000
00:18 8.4 7.3 93 274 4.4 6.7 1001.1 2.0200 0.9000
00:33 8.3 7.4 94 280 5.8 8.1 1000.8 2.3230 1.5000
00:43 8.2 7.3 94 277 5 7.8 1000.8 2.1210 1.7000
00:54 8.2 7.3 94 280 5.3 8.3 1000.7 2.0200 2.0000
01:04 8.1 7.2 94 280 5 7.5 1000.7 1.7170 2.1000
01:13 8.1 7.2 94 276 4.4 8.1 1000.8 1.6160 2.5000
01:24 8 7.1 94 279 5 7.8 1000.6 1.6160 2.9000
01:34 7.9 7.1 95 276 5 7.5 1000.6 1.5150 3.1000
01:44 7.8 7.1 95 280 5.3 11.1 1000.6 1.6160 3.4000
01:54 7.8 7.1 95 278 5.3 8.1 1000.5 1.6160 3.7000
02:05 7.8 7.1 95 277 4.7 7.2 1000.5 1.7170 4.0000
02:14 7.7 7 95 278 5.3 8.6 1000.7 1.7170 4.3000
02:24 7.7 7 95 277 5.6 8.6 1000.7 1.6160 4.6000
02:34 7.6 6.9 95 282 5.3 8.6 1000.8 1.6160 4.9000
02:45 7.6 6.9 95 279 5.3 8.1 1000.4 1.9190 5.5000
02:55 7.5 6.9 96 278 4.4 6.9 1000.5 1.8180 5.8000
03:04 7.5 6.9 96 278 4.4 7.2 1000.5 2.4240 6.5000
03:15 7.4 6.8 96 275 4.7 8.1 1000.6 2.6260 7.0000
03:25 7.4 6.8 96 275 4.4 6.4 1000.5 2.7270 7.4000
03:35 7.4 6.8 96 273 4.2 6.4 1000.3 2.8280 7.8000
03:45 7.3 6.7 96 270 3.3 5.3 1000.2 2.6260 8.1000
03:56 7.3 6.7 96 275 3.9 6.1 1000.2 2.5250 8.3000
04:05 7.3 6.7 96 279 4.2 6.1 1000 2.0200 8.5000
04:15 7.3 6.7 96 277 4.2 6.9 999.7 1.7170 8.7000
04:26 7.2 6.6 96 275 3.6 6.1 999.6 1.4140 8.8000
04:36 7.2 6.6 96 279 3.9 6.1 999.4 1.1110 8.9000
04:45 7.2 6.6 96 280 4.4 7.2 999.5 0.9090 9.0000
04:55 7.1 6.5 96 278 4.2 6.9 999.4 1.0100 9.3000
05:06 7.1 6.5 96 274 3.3 5 999.5 1.0100 9.5000
05:16 7.1 6.5 96 270 3.6 5.3 999.6 0.9090 9.6000
05:26 7.1 6.5 96 274 4.2 6.7 999.5 0.8080 9.6000
05:36 7.1 6.5 96 278 4.7 6.7 999.3 1.1110 10.0000
05:46 7.1 6.5 96 275 4.4 6.7 999.2 1.2120 10.2000
05:56 7.1 6.5 96 278 4.4 6.9 999.2 1.2120 10.5000
06:06 7.1 6.5 96 277 4.2 5.6 999.1 1.3130 10.8000
06:17 7 6.4 96 276 4.4 6.9 998.9 1.4140 11.0000
06:26 7 6.6 97 276 4.4 7.2 998.9 1.8180 11.4000
06:36 7 6.6 97 273 4.7 8.1 998.8 1.7170 11.7000
06:47 7 6.6 97 277 4.4 6.7 998.8 1.8180 12.0000
06:57 7 6.6 97 272 4.4 7.2 998.7 1.9190 12.4000
07:07 6.9 6.5 97 279 5 7.8 998.5 2.1210 12.9000
07:16 6.9 6.5 97 275 5 9.2 998.5 2.3230 13.3000
07:27 6.9 6.5 97 274 4.4 6.7 998.4 2.2220 13.6000
07:37 6.9 6.5 97 274 4.7 7.8 998.4 2.2220 13.9000
07:47 6.8 6.4 97 277 4.4 6.4 998.4 2.3230 14.3000
07:57 6.8 6.4 97 276 4.7 7.8 998.2 2.2220 14.6000
08:07 6.8 6.4 97 275 4.4 7.5 998.3 2.1210 15.0000
08:17 6.8 6.4 97 275 5 8.6 998.3 1.8180 15.2000
08:27 6.8 6.4 97 273 4.7 6.9 998.2 1.8180 15.5000
08:38 6.8 6.4 97 275 4.4 7.2 998.2 1.7170 15.7000
08:48 6.8 6.4 97 276 4.4 6.9 998.1 1.6160 16.0000
08:57 6.8 6.4 97 276 5 8.6 998.1 1.5150 16.2000
09:08 6.8 6.4 97 277 5.3 10.3 998.3 1.5150 16.6000
09:18 6.8 6.4 97 279 5.6 8.6 998.1 1.7170 16.9000
09:28 6.9 6.5 97 277 5.3 8.1 998 1.8180 17.3000
09:38 6.9 6.5 97 280 5 8.6 997.9 1.9190 17.6000
09:48 6.9 6.5 97 276 5 7.8 998 1.9190 17.9000
09:58 6.9 6.5 97 279 4.7 6.9 998 2.1210 18.3000
10:08 6.9 6.5 97 278 5 8.1 997.8 2.1210 18.7000
10:18 6.9 6.5 97 277 4.4 6.7 997.7 2.4240 19.3000
10:29 6.9 6.5 97 279 4.2 6.9 997.6 2.6260 19.9000
10:38 6.9 6.5 97 276 4.4 9.2 997.6 2.8280 20.4000
10:48 6.9 6.5 97 272 5 8.1 997.5 3.1310 21.0000
10:59 6.9 6.5 97 274 4.7 8.3 997.7 3.5350 21.8000
11:09 6.9 6.5 97 272 4.4 7.2 997.6 3.5350 22.2000
11:18 6.9 6.5 97 274 5 7.5 997.5 3.5350 22.8000
11:29 6.9 6.5 97 276 5.3 8.9 997.8 3.7370 23.6000
11:39 6.9 6.5 97 275 4.7 7.2 997.9 4.0400 24.4000
11:49 6.9 6.5 97 270 3.6 5.6 997.9 3.9390 24.9000
11:59 7 6.6 97 270 3.9 6.4 998 3.1310 25.4000
12:09 7 6.6 97 273 3.9 6.7 997.8 3.1310 26.0000
12:19 7.1 6.7 97 275 4.2 6.9 997.7 2.8280 26.5000
12:29 7.2 6.8 97 276 4.4 6.7 997.6 2.5250 27.0000
12:39 7.3 6.9 97 274 4.7 8.1 997.7 2.5250 27.5000
12:50 7.3 6.9 97 270 4.4 6.9 997.7 2.6260 28.0000
12:59 7.4 7 97 270 4.2 6.7 997.8 2.3230 28.3000
13:09 7.4 7 97 270 4.4 6.1 997.5 2.4240 28.9000
13:20 7.5 7.1 97 270 5.6 8.3 997.5 2.4240 29.4000
13:30 7.5 7.1 97 274 6.1 10.3 997.6 2.7270 30.0000
13:39 7.6 7.2 97 273 5.6 10.3 997.5 2.6260 30.4000
13:50 7.6 7.2 97 273 5.3 9.2 997.4 2.7270 30.8000
14:00 7.6 7.2 97 266 4.2 6.7 997.7 2.8280 31.4000
14:10 7.6 7.2 97 264 3.6 7.2 998 2.8280 31.9000
14:20 7.7 7.1 96 267 3.9 6.4 998 2.7270 32.4000
14:31 7.7 7.1 96 263 3.9 5.3 998.1 2.9290 33.0000
14:40 7.8 7.2 96 270 3.6 6.7 998.3 2.9290 33.5000
14:50 7.8 7.2 96 261 3.6 5.3 998.5 2.8280 33.9000
15:00 7.8 7.2 96 270 3.6 5.6 998.5 3.0300 34.7000
15:11 7.8 7.2 96 266 3.3 6.1 998.5 3.2320 35.5000
15:21 7.8 7.2 96 261 3.3 5 998.6 3.2320 36.0000
15:30 7.7 7 95 256 3.3 5.6 998.6 3.4340 36.7000
15:41 7.7 7 95 254 3.6 5.8 998.7 3.7370 37.4000
15:51 7.7 7 95 252 4.2 5.8 998.9 3.5350 37.9000
16:01 7.6 6.9 95 263 4.4 7.5 999.3 3.3330 38.4000
16:18 7.6 6.5 93 272 5.3 10 999.3 3.2320 39.0000
16:28 7.5 6.6 94 275 4.4 7.5 999.5 2.9290 39.3000
16:39 7.5 6.8 95 270 3.9 7.2 999.6 2.6260 39.6000
16:49 7.5 6.8 95 274 4.2 7.8 999.7 2.5250 40.1000
16:58 7.5 6.8 95 270 3.9 7.2 999.9 2.2220 40.4000
17:09 7.4 6.5 94 275 3.9 5.8 1000.1 2.0200 40.6000
17:19 7.4 6.5 94 276 3.9 7.2 1000.2 1.7170 40.7000
17:29 7.4 6.5 94 277 3.9 5.6 1000.3 1.1110 40.7000
17:39 7.4 6.7 95 274 3.9 6.7 1000.2 0.7070 40.8000
17:50 7.4 6.7 95 274 3.9 6.7 1000.3 0.5050 40.9000
17:59 7.4 6.7 95 270 3.6 5.3 1000.6 0.3030 40.9000
18:09 7.5 6.8 95 266 3.6 5 1000.8 0.2020 40.9000
18:20 7.5 6.8 95 265 3.3 5.3 1000.8 0.2020 40.9000
18:30 7.4 6.7 95 265 3.6 5.6 1000.5 0.1010 40.9000
18:40 7.4 6.7 95 270 3.9 5.6 1000.4 0.0000 40.9000
18:49 7.3 6.6 95 270 3.6 5.3 1000.4 0.0000 40.9000
19:00 7.3 6.6 95 261 3.1 4.4 1000.6 0.0000 40.9000
19:10 7.3 6.4 94 264 3.3 4.7 1000.4 0.0000 40.9000
19:20 7.2 6.3 94 265 3.3 5 1000.6 0.0000 40.9000
19:30 7.2 6.3 94 263 3.3 5 1000.8 0.0000 40.9000
19:40 7.2 6.3 94 266 3.3 5 1000.8 0.0000 40.9000
19:50 7.2 6.3 94 265 3.1 4.4 1000.9 0.0000 40.9000
20:00 7.2 6.5 95 257 2.8 3.9 1001 0.0000 40.9000
20:11 7.2 6.5 95 261 2.8 4.4 1001.1 0.0000 40.9000
20:21 7.1 6.4 95 261 3.1 5 1001.1 0.0000 40.9000
20:30 7.1 6.4 95 262 3.3 5 1001.2 0.0000 40.9000
20:41 7 6.3 95 260 3.1 4.2 1001.3 0.0000 40.9000
20:51 6.9 6.2 95 261 3.1 4.7 1001.3 0.0000 40.9000
21:01 6.7 6 95 258 2.5 3.9 1001.3 0.0000 40.9000
21:10 6.6 5.9 95 259 2.5 3.9 1001.4 0.0000 40.9000
21:21 6.5 5.8 95 258 2.5 3.6 1001.5 0.0000 40.9000
21:31 6.3 5.6 95 263 2.5 3.3 1001.5 0.0000 40.9000
21:41 6.1 5.4 95 255 2.8 3.9 1001.6 0.0000 40.9000
21:51 6 5.3 95 263 2.8 3.6 1001.6 0.0000 40.9000
22:01 5.8 5.2 96 265 2.8 3.9 1001.5 0.0000 40.9000
22:11 5.7 5.1 96 265 2.5 3.3 1001.5 0.0000 40.9000
22:21 5.6 5 96 252 2.5 3.9 1001.5 0.0000 40.9000
22:32 5.7 5.3 97 257 2.2 3.1 1001.5 0.0000 40.9000
22:41 5.9 5.6 98 258 1.9 3.3 1001.5 0.0000 40.9000
22:51 6 5.7 98 252 1.9 3.1 1001.5 0.0000 40.9000
23:02 6.2 5.9 98 242 1.9 3.1 1001.6 0.0000 40.9000
23:12 6.3 6 98 251 2.2 3.9 1001.6 0.0000 40.9000
23:31 6.4 6.1 98 255 2.2 2.8 1001.8 0.0000 40.9000
23:42 6.5 6.2 98 260 1.9 3.1 1001.9 0.0000 40.9000
23:52 6.6 6.3 98 259 2.2 3.3 1002.1 0.0000

STATISTICHE GIORNALIERE

2020-09-26
TEMPERATURA
MEDIA
7.2
MASSIMA
8.6
00:08
MINIMA
5.6
22:21
PRESSIONE
MEDIA
999.5
MASSIMA
1002.1
23:52
MINIMA
997.4
13:50
PUNTO DI RUGIADA
MEDIA
6.6
MASSIMA
7.5
00:08
MINIMA
5.0
22:21
UMIDITÀ
MEDIA
96
MASSIMA
98
22:41
MINIMA
93
00:08
VELOCITÀ DEL VENTO
MEDIA
4.1
MASSIMA
6.1
13:30
WIND GUST
MEDIA
6.5
MASSIMA
11.1
01:44
DIREZIONE DEL VENTO
PREVALENTE
O
99.3%
N
0.0
NE
0.0
E
0.0
SE
0.0
S
0.0
SO
0.7
O
99.3
NO
0.0
PRECIPITAZIONI
ORA DI PIOGGIA
4.0
GIORNO DI PIOGGIA
40.9
TEMPERATURA (°C)
MINIMA
5.6
MASSIMA
8.6
MEDIA
7.2
PRESSIONE (hpa)
MINIMA
997.4
MASSIMA
1002.1
MEDIA
999.5
DEVICE